createdAt,value
2022-12-03T00:01:59.858Z,95690.31
2022-12-03T00:04:26.914Z,95694.16
2022-12-03T00:06:53.715Z,95688.06
2022-12-03T00:09:20.411Z,95694.94
2022-12-03T00:11:47.038Z,95697.38
2022-12-03T00:14:13.621Z,95697.25
2022-12-03T00:16:40.203Z,95699.03
2022-12-03T00:19:07.751Z,95689.19
2022-12-03T00:21:34.851Z,95695.53
2022-12-03T00:24:01.739Z,95691.72
2022-12-03T00:26:28.422Z,95696.28
2022-12-03T00:28:55.227Z,95695.88
2022-12-03T00:31:23.718Z,95694.25
2022-12-03T00:33:51.330Z,95689.06
2022-12-03T00:36:18.441Z,95691.50
2022-12-03T00:38:45.472Z,95682.63
2022-12-03T00:41:13.107Z,95692.63
2022-12-03T00:43:40.097Z,95687.94
2022-12-03T00:46:06.736Z,95696.19
2022-12-03T00:48:33.421Z,95693.97
2022-12-03T00:51:00.194Z,95694.69
2022-12-03T00:53:26.816Z,95696.31
2022-12-03T00:55:53.413Z,95699.75
2022-12-03T00:58:20.034Z,95695.66
2022-12-03T01:00:46.672Z,95704.28
2022-12-03T01:03:13.319Z,95696.59
2022-12-03T01:05:39.959Z,95700.94
2022-12-03T01:08:06.711Z,95704.34
2022-12-03T01:10:33.342Z,95705.22
2022-12-03T01:12:59.924Z,95704.38
2022-12-03T01:15:26.484Z,95701.78
2022-12-03T01:17:54.281Z,95710.25
2022-12-03T01:20:21.164Z,95712.88
2022-12-03T01:22:47.760Z,95717.09
2022-12-03T01:25:14.614Z,95715.94
2022-12-03T01:27:41.326Z,95710.63
2022-12-03T01:30:08.307Z,95712.59
2022-12-03T01:32:34.973Z,95710.38
2022-12-03T01:35:01.549Z,95711.72
2022-12-03T01:37:28.244Z,95708.78
2022-12-03T01:39:54.788Z,95712.00
2022-12-03T01:42:25.768Z,95711.56
2022-12-03T01:44:55.969Z,95709.13
2022-12-03T01:47:27.405Z,95711.97
2022-12-03T01:49:58.113Z,95717.81
2022-12-03T01:52:28.840Z,95706.91
2022-12-03T01:54:58.270Z,95708.19
2022-12-03T01:57:27.837Z,95706.78
2022-12-03T01:59:57.681Z,95707.00
2022-12-03T02:02:29.500Z,95710.94
2022-12-03T02:04:57.435Z,95710.66
2022-12-03T02:07:28.393Z,95709.72
2022-12-03T02:09:57.343Z,95707.00
2022-12-03T02:12:34.488Z,95712.38
2022-12-03T02:15:01.940Z,95710.94
2022-12-03T02:17:28.832Z,95716.91
2022-12-03T02:19:56.321Z,95710.53
2022-12-03T02:22:46.282Z,95711.19
2022-12-03T02:25:19.329Z,95711.97
2022-12-03T02:27:48.185Z,95717.19
2022-12-03T02:30:19.535Z,95718.03
2022-12-03T02:32:47.864Z,95712.91
2022-12-03T02:35:26.702Z,95709.44
2022-12-03T02:37:58.690Z,95714.75
2022-12-03T02:40:29.755Z,95713.91
2022-12-03T02:42:59.780Z,95703.59
2022-12-03T02:45:32.431Z,95707.09
2022-12-03T02:48:21.115Z,95709.59
2022-12-03T02:51:02.491Z,95707.97
2022-12-03T02:53:36.537Z,95700.91
2022-12-03T02:56:03.794Z,95711.50
2022-12-03T02:58:32.728Z,95698.41
2022-12-03T03:01:01.986Z,95702.66
2022-12-03T03:03:30.487Z,95707.66
2022-12-03T03:05:58.656Z,95702.69
2022-12-03T03:08:26.381Z,95702.06
2022-12-03T03:10:53.955Z,95706.09
2022-12-03T03:13:21.125Z,95712.84
2022-12-03T03:15:48.007Z,95713.09
2022-12-03T03:18:15.929Z,95698.44
2022-12-03T03:20:42.772Z,95707.06
2022-12-03T03:23:12.364Z,95708.22
2022-12-03T03:25:40.817Z,95702.88
2022-12-03T03:28:08.055Z,95699.03
2022-12-03T03:30:36.275Z,95700.44
2022-12-03T03:33:03.151Z,95701.19
2022-12-03T03:35:29.846Z,95699.84
2022-12-03T03:37:58.615Z,95698.91
2022-12-03T03:40:25.982Z,95703.13
2022-12-03T03:42:55.420Z,95693.66
2022-12-03T03:45:27.310Z,95694.19
2022-12-03T03:47:57.960Z,95691.41
2022-12-03T03:50:25.374Z,95689.84
2022-12-03T03:52:52.092Z,95691.63
2022-12-03T03:55:20.361Z,95694.16
2022-12-03T03:57:48.219Z,95694.19
2022-12-03T04:00:16.860Z,95700.22
2022-12-03T04:02:43.727Z,95701.97
2022-12-03T04:05:16.918Z,95692.06
2022-12-03T04:07:43.613Z,95694.50
2022-12-03T04:10:29.949Z,95691.88
2022-12-03T04:12:56.659Z,95689.03
2022-12-03T04:15:24.336Z,95689.19
2022-12-03T04:18:11.131Z,95688.69
2022-12-03T04:20:38.498Z,95684.88
2022-12-03T04:23:05.850Z,95687.81
2022-12-03T04:25:50.904Z,95694.69
2022-12-03T04:28:36.158Z,95689.59
2022-12-03T04:31:22.774Z,95683.38
2022-12-03T04:34:08.162Z,95689.41
2022-12-03T04:36:34.733Z,95702.16
2022-12-03T04:39:01.311Z,95693.41
2022-12-03T04:41:27.840Z,95685.75
2022-12-03T04:44:13.526Z,95688.69
2022-12-03T04:46:40.117Z,95669.81
2022-12-03T04:49:06.751Z,95679.09
2022-12-03T04:51:33.391Z,95675.88
2022-12-03T04:54:00.006Z,95671.31
2022-12-03T04:56:26.608Z,95680.00
2022-12-03T04:58:53.198Z,95680.25
2022-12-03T05:01:19.926Z,95666.09
2022-12-03T05:03:46.500Z,95677.09
2022-12-03T05:06:13.106Z,95673.78
2022-12-03T05:08:39.765Z,95672.13
2022-12-03T05:11:06.592Z,95656.06
2022-12-03T05:13:33.249Z,95656.09
2022-12-03T05:16:00.339Z,95660.50
2022-12-03T05:18:26.933Z,95662.97
2022-12-03T05:20:53.898Z,95668.97
2022-12-03T05:23:21.021Z,95672.31
2022-12-03T05:25:47.646Z,95669.16
2022-12-03T05:28:14.348Z,95669.34
2022-12-03T05:30:41.168Z,95670.78
2022-12-03T05:33:07.859Z,95670.84
2022-12-03T05:35:34.446Z,95665.25
2022-12-03T05:38:01.132Z,95666.53
2022-12-03T05:40:28.487Z,95671.66
2022-12-03T05:42:55.193Z,95668.09
2022-12-03T05:45:22.311Z,95668.38
2022-12-03T05:47:49.397Z,95665.63
2022-12-03T05:50:16.072Z,95662.38
2022-12-03T05:52:42.716Z,95661.47
2022-12-03T05:55:10.646Z,95653.19
2022-12-03T05:57:38.020Z,95661.38
2022-12-03T06:00:08.044Z,95668.28
2022-12-03T06:02:39.168Z,95677.72
2022-12-03T06:05:06.382Z,95681.94
2022-12-03T06:07:33.077Z,95694.66
2022-12-03T06:09:59.754Z,95698.09
2022-12-03T06:12:26.464Z,95692.16
2022-12-03T06:14:54.913Z,95692.00
2022-12-03T06:17:21.771Z,95691.16
2022-12-03T06:19:48.346Z,95691.13
2022-12-03T06:22:14.968Z,95685.16
2022-12-03T06:24:41.586Z,95683.25
2022-12-03T06:27:08.167Z,95684.06
2022-12-03T06:29:34.772Z,95687.34
2022-12-03T06:32:01.473Z,95680.66
2022-12-03T06:34:28.053Z,95675.63
2022-12-03T06:36:54.657Z,95669.47
2022-12-03T06:39:21.551Z,95665.28
2022-12-03T06:41:48.474Z,95663.78
2022-12-03T06:44:15.475Z,95664.47
2022-12-03T06:46:42.277Z,95664.44
2022-12-03T06:49:11.643Z,95665.16
2022-12-03T06:51:38.250Z,95662.63
2022-12-03T06:54:05.551Z,95659.94
2022-12-03T06:56:36.746Z,95666.72
2022-12-03T06:59:05.972Z,95673.59
2022-12-03T07:01:32.677Z,95675.44
2022-12-03T07:03:59.512Z,95677.09
2022-12-03T07:06:26.086Z,95676.16
2022-12-03T07:08:52.766Z,95677.94
2022-12-03T07:11:31.429Z,95682.53
2022-12-03T07:14:04.625Z,95683.22
2022-12-03T07:16:33.051Z,95679.63
2022-12-03T07:18:59.828Z,95683.16
2022-12-03T07:21:26.781Z,95679.69
2022-12-03T07:23:53.377Z,95683.91
2022-12-03T07:26:19.975Z,95684.91
2022-12-03T07:28:48.235Z,95684.06
2022-12-03T07:31:15.445Z,95689.91
2022-12-03T07:33:42.411Z,95696.31
2022-12-03T07:36:09.992Z,95690.22
2022-12-03T07:38:36.642Z,95695.31
2022-12-03T07:41:03.375Z,95691.84
2022-12-03T07:43:29.969Z,95688.59
2022-12-03T07:45:56.560Z,95685.81
2022-12-03T07:48:23.151Z,95687.00
2022-12-03T07:50:49.774Z,95688.50
2022-12-03T07:53:16.452Z,95681.78
2022-12-03T07:55:43.069Z,95678.59
2022-12-03T07:58:09.668Z,95679.41
2022-12-03T08:00:36.368Z,95679.09
2022-12-03T08:03:03.072Z,95677.56
2022-12-03T08:05:29.924Z,95670.72
2022-12-03T08:07:56.870Z,95674.13
2022-12-03T08:10:25.643Z,95667.78
2022-12-03T08:12:53.668Z,95668.63
2022-12-03T08:15:26.014Z,95660.88
2022-12-03T08:18:01.114Z,95662.16
2022-12-03T08:20:33.264Z,95661.38
2022-12-03T08:23:06.637Z,95657.63
2022-12-03T08:25:33.736Z,95658.06
2022-12-03T08:28:10.714Z,95660.78
2022-12-03T08:30:37.343Z,95655.25
2022-12-03T08:33:17.639Z,95652.84
2022-12-03T08:35:49.943Z,95654.63
2022-12-03T08:38:18.808Z,95650.31
2022-12-03T08:40:46.946Z,95657.91
2022-12-03T08:43:18.579Z,95655.28
2022-12-03T08:45:45.486Z,95656.06
2022-12-03T08:48:21.035Z,95652.78
2022-12-03T08:50:48.114Z,95670.91
2022-12-03T08:53:27.003Z,95661.34
2022-12-03T08:55:59.051Z,95662.28
2022-12-03T08:58:46.832Z,95656.31
2022-12-03T09:01:13.442Z,95660.41
2022-12-03T09:03:48.841Z,95654.16
2022-12-03T09:06:15.513Z,95665.44
2022-12-03T09:08:42.230Z,95658.59
2022-12-03T09:11:08.924Z,95654.47
2022-12-03T09:13:37.902Z,95663.06
2022-12-03T09:16:04.796Z,95657.09
2022-12-03T09:18:32.496Z,95652.81
2022-12-03T09:21:00.654Z,95663.06
2022-12-03T09:23:27.216Z,95652.78
2022-12-03T09:25:53.881Z,95651.09
2022-12-03T09:28:20.451Z,95660.50
2022-12-03T09:30:47.061Z,95673.56
2022-12-03T09:33:14.029Z,95667.50
2022-12-03T09:35:40.676Z,95673.44
2022-12-03T09:38:07.324Z,95671.63
2022-12-03T09:40:34.290Z,95659.63
2022-12-03T09:43:00.927Z,95664.56
2022-12-03T09:45:27.741Z,95663.31
2022-12-03T09:47:54.998Z,95662.09
2022-12-03T09:50:27.203Z,95660.25
2022-12-03T09:52:56.922Z,95658.84
2022-12-03T09:55:26.985Z,95656.16
2022-12-03T09:57:55.016Z,95654.53
2022-12-03T10:00:24.604Z,95653.41
2022-12-03T10:02:54.468Z,95653.69
2022-12-03T10:05:22.528Z,95646.03
2022-12-03T10:07:51.704Z,95643.47
2022-12-03T10:10:22.463Z,95648.59
2022-12-03T10:12:50.883Z,95641.66
2022-12-03T10:15:21.787Z,95631.28
2022-12-03T10:17:50.611Z,95630.47
2022-12-03T10:20:20.534Z,95635.69
2022-12-03T10:22:48.753Z,95632.22
2022-12-03T10:25:21.651Z,95629.59
2022-12-03T10:28:26.001Z,95620.22
2022-12-03T10:30:56.418Z,95621.50
2022-12-03T10:33:29.780Z,95610.97
2022-12-03T10:35:56.363Z,95610.16
2022-12-03T10:38:23.654Z,95608.28
2022-12-03T10:40:50.780Z,95610.06
2022-12-03T10:43:20.044Z,95604.06
2022-12-03T10:46:11.337Z,95604.25
2022-12-03T10:48:38.442Z,95604.91
2022-12-03T10:51:05.067Z,95602.09
2022-12-03T10:53:35.590Z,95597.00
2022-12-03T10:56:05.907Z,95603.00
2022-12-03T10:58:39.059Z,95599.59
2022-12-03T11:01:18.333Z,95600.00
2022-12-03T11:03:45.899Z,95592.19
2022-12-03T11:06:18.052Z,95598.13
2022-12-03T11:08:56.193Z,95592.13
2022-12-03T11:11:30.197Z,95585.78
2022-12-03T11:13:57.882Z,95588.28
2022-12-03T11:16:39.926Z,95587.34
2022-12-03T11:19:12.615Z,95590.69
2022-12-03T11:22:09.650Z,95586.84
2022-12-03T11:24:38.779Z,95585.69
2022-12-03T11:27:06.872Z,95568.72
2022-12-03T11:29:55.969Z,95575.13
2022-12-03T11:32:37.983Z,95573.41
2022-12-03T11:35:11.662Z,95565.56
2022-12-03T11:37:38.486Z,95572.78
2022-12-03T11:40:27.080Z,95573.97
2022-12-03T11:42:53.674Z,95565.53
2022-12-03T11:45:37.906Z,95565.50
2022-12-03T11:48:15.812Z,95555.63
2022-12-03T11:50:49.508Z,95558.28
2022-12-03T11:53:22.576Z,95554.78
2022-12-03T11:56:06.439Z,95545.88
2022-12-03T11:58:38.686Z,95542.25
2022-12-03T12:01:07.256Z,95541.91
2022-12-03T12:03:37.150Z,95535.66
2022-12-03T12:06:20.663Z,95530.41
2022-12-03T12:08:50.837Z,95530.94
2022-12-03T12:11:29.491Z,95529.22
2022-12-03T12:14:01.270Z,95528.47
2022-12-03T12:16:38.381Z,95519.16
2022-12-03T12:19:37.427Z,95519.09
2022-12-03T12:22:21.128Z,95516.84
2022-12-03T12:24:53.563Z,95509.59
2022-12-03T12:27:29.112Z,95503.75
2022-12-03T12:30:01.403Z,95502.78
2022-12-03T12:32:50.052Z,95491.41
2022-12-03T12:35:26.322Z,95488.38
2022-12-03T12:38:11.588Z,95487.34
2022-12-03T12:40:45.106Z,95491.72
2022-12-03T12:43:14.354Z,95482.53
2022-12-03T12:45:43.392Z,95483.47
2022-12-03T12:48:09.910Z,95482.47
2022-12-03T12:50:40.967Z,95478.13
2022-12-03T12:53:10.684Z,95481.47
2022-12-03T12:55:39.144Z,95476.28
2022-12-03T12:58:16.234Z,95475.81
2022-12-03T13:00:48.698Z,95492.25
2022-12-03T13:03:18.814Z,95484.13
2022-12-03T13:05:47.981Z,95491.75
2022-12-03T13:08:31.054Z,95482.41
2022-12-03T13:11:01.958Z,95484.47
2022-12-03T13:13:44.334Z,95487.78
2022-12-03T13:16:22.595Z,95488.81
2022-12-03T13:18:54.559Z,95481.69
2022-12-03T13:21:40.405Z,95481.53
2022-12-03T13:24:39.599Z,95485.69
2022-12-03T13:27:18.564Z,95485.28
2022-12-03T13:29:47.606Z,95486.69
2022-12-03T13:32:19.529Z,95482.84
2022-12-03T13:34:46.992Z,95487.91
2022-12-03T13:37:21.992Z,95478.13
2022-12-03T13:39:56.523Z,95481.81
2022-12-03T13:42:42.055Z,95483.66
2022-12-03T13:45:14.935Z,95477.38
2022-12-03T13:47:44.184Z,95475.59
2022-12-03T13:50:24.951Z,95465.97
2022-12-03T13:52:52.885Z,95477.38
2022-12-03T13:55:28.351Z,95466.81
2022-12-03T13:57:55.694Z,95471.13
2022-12-03T14:00:23.699Z,95463.41
2022-12-03T14:02:50.485Z,95468.69
2022-12-03T14:05:17.104Z,95462.34
2022-12-03T14:07:43.819Z,95470.34
2022-12-03T14:10:12.518Z,95457.03
2022-12-03T14:12:39.086Z,95462.69
2022-12-03T14:15:06.615Z,95463.88
2022-12-03T14:17:33.195Z,95469.75
2022-12-03T14:20:03.767Z,95473.13
2022-12-03T14:22:30.791Z,95470.13
2022-12-03T14:24:57.729Z,95472.66
2022-12-03T14:27:24.828Z,95480.91
2022-12-03T14:29:52.161Z,95481.50
2022-12-03T14:32:19.197Z,95478.81
2022-12-03T14:34:45.796Z,95488.66
2022-12-03T14:37:12.377Z,95491.38
2022-12-03T14:39:39.265Z,95484.25
2022-12-03T14:42:14.851Z,95486.19
2022-12-03T14:44:49.123Z,95486.59
2022-12-03T14:47:18.156Z,95477.84
2022-12-03T14:49:44.962Z,95491.41
2022-12-03T14:52:12.860Z,95490.34
2022-12-03T14:54:42.255Z,95488.09
2022-12-03T14:57:11.427Z,95480.41
2022-12-03T14:59:39.007Z,95490.22
2022-12-03T15:02:05.684Z,95490.97
2022-12-03T15:04:32.335Z,95479.38
2022-12-03T15:06:58.937Z,95484.47
2022-12-03T15:09:25.631Z,95486.97
2022-12-03T15:11:52.232Z,95488.31
2022-12-03T15:14:18.875Z,95489.22
2022-12-03T15:16:45.504Z,95482.78
2022-12-03T15:19:13.927Z,95478.88
2022-12-03T15:21:40.543Z,95473.75
2022-12-03T15:24:07.593Z,95467.75
2022-12-03T15:26:34.219Z,95476.53
2022-12-03T15:29:00.807Z,95475.47
2022-12-03T15:31:27.467Z,95472.97
2022-12-03T15:33:54.091Z,95470.19
2022-12-03T15:36:20.702Z,95474.59
2022-12-03T15:38:47.258Z,95471.81
2022-12-03T15:41:28.654Z,95481.59
2022-12-03T15:43:59.833Z,95473.47
2022-12-03T15:46:27.821Z,95482.94
2022-12-03T15:48:55.497Z,95483.97
2022-12-03T15:51:22.117Z,95486.47
2022-12-03T15:53:48.727Z,95483.38
2022-12-03T15:56:15.338Z,95478.34
2022-12-03T15:58:42.084Z,95480.75
2022-12-03T16:01:09.516Z,95474.94
2022-12-03T16:03:36.759Z,95470.84
2022-12-03T16:06:03.581Z,95479.56
2022-12-03T16:08:30.263Z,95468.47
2022-12-03T16:10:56.890Z,95476.06
2022-12-03T16:13:23.541Z,95477.91
2022-12-03T16:15:50.241Z,95467.78
2022-12-03T16:18:16.845Z,95465.47
2022-12-03T16:20:43.437Z,95469.53
2022-12-03T16:23:10.018Z,95461.97
2022-12-03T16:25:36.592Z,95457.56
2022-12-03T16:28:03.712Z,95466.63
2022-12-03T16:30:45.431Z,95463.75
2022-12-03T16:33:12.171Z,95461.00
2022-12-03T16:35:38.758Z,95460.22
2022-12-03T16:38:05.350Z,95457.75
2022-12-03T16:40:31.932Z,95449.16
2022-12-03T16:42:58.539Z,95461.91
2022-12-03T16:45:54.022Z,95447.06
2022-12-03T16:48:20.592Z,95452.69
2022-12-03T16:50:47.321Z,95457.63
2022-12-03T16:53:14.688Z,95454.59
2022-12-03T16:55:41.307Z,95454.69
2022-12-03T16:58:10.088Z,95455.56
2022-12-03T17:00:36.839Z,95453.75
2022-12-03T17:03:03.585Z,95450.34
2022-12-03T17:05:30.310Z,95452.88
2022-12-03T17:07:57.097Z,95460.84
2022-12-03T17:10:23.944Z,95452.25
2022-12-03T17:15:37.927Z,95453.03
2022-12-03T17:18:04.730Z,95452.91
2022-12-03T17:20:32.591Z,95442.66
2022-12-03T17:22:59.664Z,95448.25
2022-12-03T17:25:26.944Z,95449.97
2022-12-03T17:27:53.510Z,95452.41
2022-12-03T17:30:20.579Z,95452.41
2022-12-03T17:32:48.814Z,95447.34
2022-12-03T17:35:15.424Z,95443.13
2022-12-03T17:37:42.107Z,95434.03
2022-12-03T17:40:11.142Z,95445.97
2022-12-03T17:42:37.942Z,95436.31
2022-12-03T17:45:05.268Z,95434.28
2022-12-03T17:47:31.956Z,95434.22
2022-12-03T17:49:58.624Z,95425.91
2022-12-03T17:52:25.221Z,95425.19
2022-12-03T17:57:38.416Z,95427.25
2022-12-03T18:00:05.815Z,95425.06
2022-12-03T18:02:39.057Z,95430.69
2022-12-03T18:05:05.834Z,95428.06
2022-12-03T18:07:32.456Z,95430.06
2022-12-03T18:09:59.214Z,95438.00
2022-12-03T18:12:26.348Z,95439.72
2022-12-03T18:14:52.943Z,95431.69
2022-12-03T18:17:19.922Z,95430.88
2022-12-03T18:19:46.524Z,95434.22
2022-12-03T18:22:13.527Z,95430.94
2022-12-03T18:24:40.555Z,95420.59
2022-12-03T18:27:07.232Z,95427.88
2022-12-03T18:29:33.918Z,95427.13
2022-12-03T18:32:00.719Z,95434.81
2022-12-03T18:34:27.324Z,95426.31
2022-12-03T18:36:54.157Z,95426.91
2022-12-03T18:39:26.824Z,95425.38
2022-12-03T18:41:53.997Z,95420.50
2022-12-03T18:44:21.145Z,95417.72
2022-12-03T18:46:55.148Z,95417.78
2022-12-03T18:49:22.300Z,95422.47
2022-12-03T18:51:50.439Z,95431.00
2022-12-03T18:54:18.836Z,95430.69
2022-12-03T18:56:45.464Z,95424.69
2022-12-03T18:59:12.293Z,95421.88
2022-12-03T19:01:38.960Z,95418.44
2022-12-03T19:04:05.653Z,95419.47
2022-12-03T19:06:32.358Z,95419.69
2022-12-03T19:08:59.115Z,95423.44
2022-12-03T19:11:26.033Z,95418.06
2022-12-03T19:13:52.797Z,95413.44
2022-12-03T19:16:19.433Z,95417.69
2022-12-03T19:18:46.217Z,95412.94
2022-12-03T19:21:16.436Z,95409.06
2022-12-03T19:24:04.239Z,95408.69
2022-12-03T19:26:30.376Z,95408.56
2022-12-03T19:28:57.187Z,95405.38
2022-12-03T19:31:23.913Z,95410.16
2022-12-03T19:33:51.751Z,95404.72
2022-12-03T19:36:24.773Z,95410.25
2022-12-03T19:38:56.817Z,95394.78
2022-12-03T19:41:27.327Z,95397.41
2022-12-03T19:43:55.345Z,95404.41
2022-12-03T19:46:24.100Z,95397.88
2022-12-03T19:48:50.949Z,95398.25
2022-12-03T19:51:33.603Z,95398.66
2022-12-03T19:54:03.214Z,95407.56
2022-12-03T19:56:30.518Z,95409.63
2022-12-03T19:58:57.712Z,95415.19
2022-12-03T20:01:30.738Z,95404.25
2022-12-03T20:03:59.157Z,95400.13
2022-12-03T20:06:28.581Z,95400.66
2022-12-03T20:09:00.123Z,95395.44
2022-12-03T20:11:30.985Z,95390.22
2022-12-03T20:14:11.072Z,95387.94
2022-12-03T20:16:37.795Z,95386.72
2022-12-03T20:19:07.024Z,95394.28
2022-12-03T20:21:36.034Z,95395.63
2022-12-03T20:24:03.723Z,95396.53
2022-12-03T20:26:30.651Z,95394.00
2022-12-03T20:28:58.137Z,95389.22
2022-12-03T20:31:28.760Z,95380.69
2022-12-03T20:33:57.940Z,95371.44
2022-12-03T20:36:26.023Z,95368.91
2022-12-03T20:38:57.573Z,95375.72
2022-12-03T20:41:24.458Z,95368.78
2022-12-03T20:43:51.540Z,95370.56
2022-12-03T20:46:22.059Z,95378.97
2022-12-03T20:48:49.144Z,95376.66
2022-12-03T20:51:19.520Z,95375.75
2022-12-03T20:53:46.467Z,95387.44
2022-12-03T20:56:36.495Z,95381.47
2022-12-03T20:59:11.789Z,95372.84
2022-12-03T21:01:40.101Z,95387.47
2022-12-03T21:04:07.489Z,95382.97
2022-12-03T21:06:36.108Z,95380.19
2022-12-03T21:09:05.676Z,95376.22
2022-12-03T21:11:35.469Z,95376.16
2022-12-03T21:14:03.106Z,95381.94
2022-12-03T21:17:06.566Z,95381.13
2022-12-03T21:19:20.398Z,95387.44
2022-12-03T21:21:47.032Z,95380.66
2022-12-03T21:24:13.866Z,95375.31
2022-12-03T21:26:40.982Z,95384.88
2022-12-03T21:29:07.899Z,95376.81
2022-12-03T21:31:35.603Z,95367.56
2022-12-03T21:34:02.885Z,95356.28
2022-12-03T21:36:29.450Z,95364.25
2022-12-03T21:38:56.057Z,95355.88
2022-12-03T21:41:22.720Z,95358.31
2022-12-03T21:43:49.376Z,95360.22
2022-12-03T21:47:10.409Z,95357.69
2022-12-03T21:49:03.891Z,95353.34
2022-12-03T21:51:30.681Z,95358.38
2022-12-03T21:53:57.294Z,95361.59
2022-12-03T21:56:23.835Z,95363.28
2022-12-03T21:58:50.436Z,95364.09
2022-12-03T22:01:22.645Z,95368.44
2022-12-03T22:04:05.583Z,95358.88
2022-12-03T22:06:32.411Z,95365.56
2022-12-03T22:08:59.024Z,95359.00
2022-12-03T22:11:25.611Z,95359.63
2022-12-03T22:13:52.387Z,95366.63
2022-12-03T22:16:20.950Z,95354.03
2022-12-03T22:18:48.248Z,95345.72
2022-12-03T22:21:18.432Z,95352.16
2022-12-03T22:23:45.684Z,95349.13
2022-12-03T22:26:14.847Z,95352.00
2022-12-03T22:28:46.141Z,95359.28
2022-12-03T22:31:13.459Z,95339.53
2022-12-03T22:33:41.029Z,95346.44
2022-12-03T22:36:18.036Z,95342.19
2022-12-03T22:38:47.043Z,95335.91
2022-12-03T22:41:17.333Z,95332.59
2022-12-03T22:43:45.002Z,95332.84
2022-12-03T22:46:12.835Z,95329.31
2022-12-03T22:48:41.085Z,95327.56
2022-12-03T22:51:14.630Z,95319.88
2022-12-03T22:53:41.237Z,95323.38
2022-12-03T22:56:07.844Z,95324.91
2022-12-03T22:58:34.813Z,95326.38
2022-12-03T23:01:03.064Z,95334.19
2022-12-03T23:03:30.417Z,95324.13
2022-12-03T23:05:57.075Z,95326.66
2022-12-03T23:08:23.836Z,95326.84
2022-12-03T23:10:52.418Z,95323.94
2022-12-03T23:13:20.117Z,95328.19
2022-12-03T23:15:49.385Z,95326.44
2022-12-03T23:18:16.604Z,95325.03
2022-12-03T23:20:49.447Z,95310.72
2022-12-03T23:23:16.923Z,95313.22
2022-12-03T23:25:44.205Z,95319.41
2022-12-03T23:28:11.246Z,95316.34
2022-12-03T23:30:38.993Z,95322.47
2022-12-03T23:33:06.575Z,95312.75
2022-12-03T23:35:33.363Z,95317.69
2022-12-03T23:38:00.046Z,95316.66
2022-12-03T23:40:26.765Z,95321.56
2022-12-03T23:42:53.439Z,95323.03
2022-12-03T23:45:20.015Z,95327.25
2022-12-03T23:47:46.637Z,95317.06
2022-12-03T23:50:13.391Z,95319.78
2022-12-03T23:52:40.236Z,95304.56
2022-12-03T23:55:07.092Z,95309.53
2022-12-03T23:57:34.425Z,95300.91
